Time;durP1;ratioP1;P1;durP2;ratioP2;P2;SDS_P1;SDS_P2;PMS_P1;PMS_P2;Temp;Humidity;BMP_temperature;BMP_pressure;BME280_temperature;BME280_humidity;BME280_pressure;Samples;Min_cycle;Max_cycle;Signal;HPM_P1;HPM_P2
2023/04/11 00:02:05;;;;;;;6.43;4.70;;;8.40;99.90;;;;;;5060244;28;20056;-79
2023/04/11 00:04:33;;;;;;;6.77;4.37;;;8.40;99.90;;;;;;5059518;28;20025;-80
2023/04/11 00:06:59;;;;;;;5.73;4.03;;;8.40;99.90;;;;;;5058717;28;20044;-79
2023/04/11 00:09:25;;;;;;;6.00;4.43;;;8.40;99.90;;;;;;5060075;28;20871;-79
2023/04/11 00:11:50;;;;;;;7.83;4.13;;;8.40;99.90;;;;;;5063881;28;20102;-79
2023/04/11 00:14:16;;;;;;;5.60;3.87;;;8.40;99.90;;;;;;5064284;28;20021;-79
2023/04/11 00:16:42;;;;;;;8.27;4.30;;;8.40;99.90;;;;;;5060302;28;20028;-80
2023/04/11 00:19:08;;;;;;;5.60;3.80;;;8.50;99.90;;;;;;5062680;28;20077;-80
2023/04/11 00:21:38;;;;;;;6.17;3.70;;;8.50;99.90;;;;;;5061476;28;20032;-79
2023/04/11 00:24:07;;;;;;;5.70;3.50;;;8.60;99.90;;;;;;5062266;28;20078;-79
2023/04/11 00:26:32;;;;;;;4.93;3.20;;;8.60;99.90;;;;;;5062480;28;20032;-79
2023/04/11 00:28:58;;;;;;;3.47;2.60;;;8.70;99.90;;;;;;5059770;28;20024;-80
2023/04/11 00:31:24;;;;;;;4.20;2.80;;;8.70;99.90;;;;;;5060940;28;20037;-79
2023/04/11 00:33:49;;;;;;;6.43;3.37;;;8.80;99.90;;;;;;5062889;28;20124;-79
2023/04/11 00:36:15;;;;;;;6.00;4.10;;;8.80;99.90;;;;;;5060617;28;20172;-79
2023/04/11 00:38:41;;;;;;;3.57;2.80;;;8.80;99.90;;;;;;5061469;28;20298;-79
2023/04/11 00:41:07;;;;;;;3.60;2.57;;;8.80;99.90;;;;;;5059494;28;20029;-79
2023/04/11 00:43:33;;;;;;;3.93;3.03;;;8.90;99.90;;;;;;5060925;28;20501;-79
2023/04/11 00:45:59;;;;;;;3.37;2.60;;;9.00;99.90;;;;;;5061065;28;20025;-80
2023/04/11 00:48:27;;;;;;;4.90;2.70;;;9.10;99.90;;;;;;5059430;28;20356;-79
2023/04/11 00:50:53;;;;;;;3.60;2.73;;;9.20;99.90;;;;;;5061560;28;20092;-79
2023/04/11 00:53:20;;;;;;;5.67;2.57;;;9.20;99.90;;;;;;5060613;28;20116;-80
2023/04/11 00:55:45;;;;;;;3.50;2.83;;;9.30;99.90;;;;;;5061834;28;20036;-80
2023/04/11 00:58:12;;;;;;;5.57;2.90;;;9.40;99.90;;;;;;5061123;28;20409;-79
2023/04/11 01:00:37;;;;;;;4.10;3.03;;;9.40;99.90;;;;;;5062314;28;20040;-79
2023/04/11 01:03:03;;;;;;;3.80;2.43;;;9.40;99.90;;;;;;5062294;28;20035;-80
2023/04/11 01:05:31;;;;;;;3.40;2.53;;;9.40;99.90;;;;;;5061317;28;20025;-80
2023/04/11 01:07:58;;;;;;;4.47;2.90;;;9.50;99.90;;;;;;5061168;28;20072;-79
2023/04/11 01:10:27;;;;;;;4.00;2.70;;;9.50;99.90;;;;;;5059615;28;20020;-80
2023/04/11 01:12:54;;;;;;;5.23;2.70;;;9.60;99.90;;;;;;5061579;28;21003;-79
2023/04/11 01:15:20;;;;;;;4.60;2.90;;;9.60;99.90;;;;;;5062134;28;20063;-80
2023/04/11 01:17:46;;;;;;;3.43;2.60;;;9.60;99.90;;;;;;5061072;28;20071;-79
2023/04/11 01:20:12;;;;;;;4.47;2.63;;;9.70;99.90;;;;;;5060684;28;20093;-79
2023/04/11 01:22:40;;;;;;;3.53;2.43;;;9.70;99.90;;;;;;5061789;28;20123;-80
2023/04/11 01:25:06;;;;;;;4.73;2.87;;;9.70;99.90;;;;;;5060889;28;20032;-79
2023/04/11 01:27:33;;;;;;;4.97;2.40;;;9.70;99.90;;;;;;5061440;28;20056;-80
2023/04/11 01:29:59;;;;;;;3.87;2.77;;;9.70;99.90;;;;;;5061888;28;20055;-79
2023/04/11 01:32:25;;;;;;;6.40;2.47;;;9.70;99.90;;;;;;5061541;28;20614;-80
2023/04/11 01:34:52;;;;;;;2.60;2.17;;;9.80;99.90;;;;;;5062033;28;20067;-80
2023/04/11 01:37:18;;;;;;;3.73;2.10;;;9.80;99.90;;;;;;5062270;28;20209;-80
2023/04/11 01:39:44;;;;;;;4.23;2.70;;;9.80;99.90;;;;;;5061677;28;20130;-79
2023/04/11 01:42:11;;;;;;;3.67;2.13;;;9.90;99.90;;;;;;5062931;28;20105;-80
2023/04/11 01:44:37;;;;;;;3.70;2.40;;;9.90;99.90;;;;;;5062556;28;20076;-79
2023/04/11 01:47:02;;;;;;;3.20;2.53;;;10.00;99.90;;;;;;5061671;28;20071;-80
2023/04/11 01:49:28;;;;;;;4.80;2.50;;;10.00;99.90;;;;;;5063767;28;20037;-79
2023/04/11 01:51:54;;;;;;;3.50;2.20;;;10.00;99.90;;;;;;5064906;28;20037;-79
2023/04/11 01:54:20;;;;;;;4.87;2.60;;;10.10;99.90;;;;;;5059681;28;20037;-79
2023/04/11 01:56:45;;;;;;;2.80;2.30;;;10.10;99.90;;;;;;5058863;28;20048;-79
2023/04/11 01:59:11;;;;;;;4.47;2.40;;;10.20;99.90;;;;;;5058353;28;20032;-80
2023/04/11 02:01:36;;;;;;;3.87;2.10;;;10.20;99.90;;;;;;5060186;28;20092;-79
2023/04/11 02:04:02;;;;;;;2.73;2.13;;;10.30;99.90;;;;;;5059901;28;20075;-79
2023/04/11 02:06:28;;;;;;;2.57;2.00;;;10.30;99.90;;;;;;5061839;28;21120;-79
2023/04/11 02:08:53;;;;;;;6.50;2.30;;;10.30;99.90;;;;;;5062484;28;20447;-79
2023/04/11 02:11:19;;;;;;;3.53;1.90;;;10.30;99.90;;;;;;5060502;28;20449;-80
2023/04/11 02:13:45;;;;;;;3.33;1.87;;;10.30;99.90;;;;;;5059096;28;20033;-79
2023/04/11 02:16:13;;;;;;;3.00;1.77;;;10.40;99.90;;;;;;5061264;28;20029;-79
2023/04/11 02:18:40;;;;;;;3.37;1.63;;;10.50;99.90;;;;;;5061747;28;20914;-79
2023/04/11 02:21:06;;;;;;;3.17;1.77;;;10.50;99.90;;;;;;5058659;28;20036;-79
2023/04/11 02:23:31;;;;;;;3.13;1.80;;;10.70;99.90;;;;;;5059196;28;20036;-79
2023/04/11 02:25:57;;;;;;;4.43;1.50;;;10.70;99.90;;;;;;5059700;28;20028;-79
2023/04/11 02:28:22;;;;;;;3.80;1.90;;;10.80;99.90;;;;;;5059675;28;20039;-79
2023/04/11 02:30:48;;;;;;;3.33;1.87;;;10.90;99.90;;;;;;5057550;28;20036;-80
2023/04/11 02:33:14;;;;;;;2.50;1.73;;;10.90;99.90;;;;;;5058337;28;20083;-79
2023/04/11 02:35:40;;;;;;;2.53;1.60;;;11.00;99.90;;;;;;5058858;28;20060;-79
2023/04/11 02:38:06;;;;;;;3.03;1.80;;;11.00;99.90;;;;;;5058231;28;20041;-79
2023/04/11 02:40:31;;;;;;;2.30;1.50;;;11.00;99.90;;;;;;5058446;28;20027;-80
2023/04/11 02:42:57;;;;;;;2.80;1.75;;;11.00;99.90;;;;;;5057253;28;20041;-79
2023/04/11 02:45:22;;;;;;;7.30;1.87;;;11.10;99.90;;;;;;5060184;28;20082;-79
2023/04/11 02:47:48;;;;;;;2.23;1.53;;;11.10;99.90;;;;;;5056960;28;20036;-79
2023/04/11 02:50:14;;;;;;;2.10;1.40;;;11.20;99.90;;;;;;5055558;28;20032;-79
2023/04/11 02:52:41;;;;;;;3.20;1.77;;;11.20;99.90;;;;;;5056299;28;20130;-80
2023/04/11 02:55:07;;;;;;;2.83;1.60;;;11.20;99.90;;;;;;5055586;28;20033;-80
2023/04/11 02:57:32;;;;;;;3.50;1.80;;;11.20;99.90;;;;;;5055029;28;20112;-79
2023/04/11 02:59:58;;;;;;;3.47;1.80;;;11.20;99.90;;;;;;5055530;28;20052;-80
2023/04/11 03:02:24;;;;;;;4.43;1.60;;;11.30;99.90;;;;;;5054205;28;20419;-80
2023/04/11 03:04:50;;;;;;;5.20;1.90;;;11.20;99.90;;;;;;5051811;28;21450;-80
2023/04/11 03:07:15;;;;;;;2.57;1.57;;;11.30;99.90;;;;;;5051620;28;20047;-80
2023/04/11 03:09:41;;;;;;;3.50;1.40;;;11.30;99.90;;;;;;5060216;28;20419;-79
2023/04/11 03:12:06;;;;;;;4.13;1.60;;;11.30;99.90;;;;;;5064387;28;20025;-80
2023/04/11 03:14:32;;;;;;;2.80;1.50;;;11.30;99.90;;;;;;5064793;28;21145;-79
2023/04/11 03:16:57;;;;;;;3.43;1.80;;;11.30;99.90;;;;;;5065091;28;20037;-80
2023/04/11 03:19:23;;;;;;;5.88;1.83;;;11.30;99.90;;;;;;5064604;28;20089;-80
2023/04/11 03:21:48;;;;;;;3.90;1.97;;;11.30;99.90;;;;;;5065570;28;20024;-79
2023/04/11 03:24:14;;;;;;;3.88;1.77;;;11.40;99.90;;;;;;5062924;28;20396;-79
2023/04/11 03:26:39;;;;;;;2.78;1.73;;;11.40;99.90;;;;;;5059030;28;20526;-79
2023/04/11 03:29:05;;;;;;;2.67;1.50;;;11.40;99.90;;;;;;5062397;28;20084;-79
2023/04/11 03:31:30;;;;;;;2.88;1.83;;;11.40;99.90;;;;;;5056202;28;20126;-79
2023/04/11 03:33:58;;;;;;;4.40;2.10;;;11.40;99.90;;;;;;5057226;28;20029;-79
2023/04/11 03:36:25;;;;;;;3.35;1.95;;;11.50;99.90;;;;;;5057446;28;20200;-79
2023/04/11 03:38:51;;;;;;;3.50;2.03;;;11.50;99.90;;;;;;5056029;28;20040;-79
2023/04/11 03:41:18;;;;;;;2.80;1.70;;;11.80;99.90;;;;;;5055431;28;20543;-79
2023/04/11 03:43:44;;;;;;;2.27;1.33;;;11.90;99.90;;;;;;5055968;28;21375;-79
2023/04/11 03:46:10;;;;;;;3.85;1.80;;;12.00;99.90;;;;;;5056093;28;20031;-79
2023/04/11 03:48:35;;;;;;;3.15;1.70;;;12.00;99.90;;;;;;5056635;28;20408;-79
2023/04/11 03:51:01;;;;;;;3.08;1.75;;;12.00;99.90;;;;;;5054041;28;20445;-79
2023/04/11 03:53:26;;;;;;;3.22;1.70;;;11.90;99.90;;;;;;5055465;28;20464;-79
2023/04/11 03:55:53;;;;;;;5.72;2.15;;;11.90;99.90;;;;;;5055753;28;20035;-79
2023/04/11 03:58:18;;;;;;;3.58;1.67;;;11.90;99.90;;;;;;5057565;28;20040;-79
2023/04/11 04:00:45;;;;;;;2.55;1.63;;;11.80;99.90;;;;;;5055794;28;20059;-79
2023/04/11 04:03:12;;;;;;;5.30;1.65;;;11.80;99.90;;;;;;5059326;28;20044;-79
2023/04/11 04:05:39;;;;;;;3.45;1.30;;;11.80;99.90;;;;;;5054709;28;20040;-79
2023/04/11 04:08:05;;;;;;;2.88;1.40;;;11.70;99.90;;;;;;5056392;28;20078;-79
2023/04/11 04:10:30;;;;;;;2.70;1.73;;;11.70;99.90;;;;;;5057249;28;20025;-80
2023/04/11 04:12:56;;;;;;;3.30;1.70;;;11.60;99.90;;;;;;5056916;28;20122;-79
2023/04/11 04:15:21;;;;;;;5.50;2.72;;;11.60;99.90;;;;;;5056399;28;20441;-79
2023/04/11 04:17:47;;;;;;;5.88;2.85;;;11.60;99.90;;;;;;5056339;28;20096;-79
2023/04/11 04:20:12;;;;;;;4.55;2.30;;;11.50;99.90;;;;;;5057766;28;20058;-80
2023/04/11 04:22:38;;;;;;;4.95;2.15;;;11.50;99.90;;;;;;5056154;28;20036;-79
2023/04/11 04:25:04;;;;;;;4.73;2.17;;;11.50;99.90;;;;;;5056853;28;20131;-79
2023/04/11 04:27:31;;;;;;;7.25;2.28;;;11.50;99.90;;;;;;5056239;28;20043;-79
2023/04/11 04:29:57;;;;;;;6.28;1.90;;;11.50;99.90;;;;;;5059939;28;20029;-86
2023/04/11 04:32:23;;;;;;;3.33;1.48;;;11.50;99.90;;;;;;5059218;28;20036;-80
2023/04/11 04:34:56;;;;;;;5.68;2.00;;;11.50;99.90;;;;;;5055495;28;20044;-79
2023/04/11 04:37:23;;;;;;;3.03;1.50;;;11.50;99.90;;;;;;5057330;28;20036;-79
2023/04/11 04:40:00;;;;;;;2.33;1.40;;;11.60;99.90;;;;;;5056352;28;20029;-79
2023/04/11 04:42:28;;;;;;;2.40;1.40;;;11.70;99.90;;;;;;5054492;28;20021;-79
2023/04/11 04:44:55;;;;;;;2.03;1.30;;;11.80;99.90;;;;;;5054279;28;20086;-79
2023/04/11 04:47:23;;;;;;;3.13;1.50;;;11.80;99.90;;;;;;5052278;28;20991;-79
2023/04/11 04:49:53;;;;;;;3.65;1.40;;;11.80;99.90;;;;;;5053144;28;20097;-79
2023/04/11 04:52:19;;;;;;;3.00;1.50;;;11.70;99.90;;;;;;5054132;28;20487;-79
2023/04/11 04:54:45;;;;;;;4.90;1.33;;;11.70;99.90;;;;;;5054870;28;20107;-79
2023/04/11 04:57:11;;;;;;;2.70;1.60;;;11.60;99.90;;;;;;5054845;28;20110;-79
2023/04/11 04:59:36;;;;;;;3.90;2.07;;;11.60;99.90;;;;;;5049991;28;20029;-80
2023/04/11 05:02:02;;;;;;;4.10;1.38;;;11.60;99.90;;;;;;5059978;28;20055;-80
2023/04/11 05:04:28;;;;;;;3.73;1.60;;;11.60;99.90;;;;;;5063221;28;20080;-80
2023/04/11 05:06:54;;;;;;;4.77;1.53;;;11.60;99.90;;;;;;5063999;28;20052;-79
2023/04/11 05:09:20;;;;;;;5.77;1.53;;;11.70;99.90;;;;;;5058870;28;20057;-79
2023/04/11 05:11:45;;;;;;;4.38;1.88;;;11.70;99.90;;;;;;5055599;28;20078;-79
2023/04/11 05:14:11;;;;;;;4.30;1.67;;;11.60;99.90;;;;;;5057836;28;20017;-80
2023/04/11 05:16:41;;;;;;;3.03;1.97;;;11.60;99.90;;;;;;5058062;28;20047;-79
2023/04/11 05:19:06;;;;;;;3.67;1.80;;;11.70;99.90;;;;;;5052411;28;20045;-79
2023/04/11 05:21:32;;;;;;;4.43;2.03;;;11.70;99.90;;;;;;5053802;28;20032;-79
2023/04/11 05:23:57;;;;;;;5.17;1.83;;;11.70;99.90;;;;;;5063204;28;20051;-80
2023/04/11 05:26:23;;;;;;;4.97;1.80;;;11.60;99.90;;;;;;5063080;28;20051;-80
2023/04/11 05:28:49;;;;;;;4.43;2.10;;;11.50;99.90;;;;;;5061953;28;20025;-80
2023/04/11 05:31:15;;;;;;;4.60;1.90;;;11.50;99.90;;;;;;5065540;28;20032;-80
2023/04/11 05:33:42;;;;;;;4.70;2.17;;;11.40;99.90;;;;;;5064570;28;20024;-80
2023/04/11 05:36:12;;;;;;;3.03;2.23;;;11.50;99.90;;;;;;5062142;28;20086;-80
2023/04/11 05:38:39;;;;;;;6.47;1.90;;;11.40;99.90;;;;;;5060667;28;20063;-80
2023/04/11 05:41:05;;;;;;;3.43;2.13;;;11.40;99.90;;;;;;5060999;28;20051;-81
2023/04/11 05:43:31;;;;;;;3.30;1.90;;;11.40;99.90;;;;;;5062922;28;20027;-81
2023/04/11 05:45:56;;;;;;;5.97;2.77;;;11.40;99.90;;;;;;5063447;28;20029;-81
2023/04/11 05:48:22;;;;;;;3.30;2.00;;;11.40;99.90;;;;;;5063003;28;20139;-81
2023/04/11 05:50:49;;;;;;;4.77;1.87;;;11.40;99.90;;;;;;5064145;28;20028;-81
2023/04/11 05:53:15;;;;;;;4.83;2.10;;;11.30;99.90;;;;;;5064056;28;20043;-81
2023/04/11 05:55:40;;;;;;;3.63;2.00;;;11.30;99.90;;;;;;5064094;28;20024;-80
2023/04/11 05:58:06;;;;;;;2.57;1.80;;;11.20;99.90;;;;;;5064466;28;20044;-80
2023/04/11 06:00:31;;;;;;;3.67;1.60;;;11.10;99.90;;;;;;5063194;28;20092;-80
2023/04/11 06:02:58;;;;;;;2.97;1.87;;;11.10;99.90;;;;;;5062529;28;20100;-80
2023/04/11 06:05:25;;;;;;;2.27;1.70;;;11.00;99.90;;;;;;5062334;28;20052;-81
2023/04/11 06:07:51;;;;;;;4.33;1.83;;;10.90;99.90;;;;;;5063190;28;20037;-80
2023/04/11 06:10:16;;;;;;;2.40;1.80;;;10.90;99.90;;;;;;5060880;28;20452;-81
2023/04/11 06:12:42;;;;;;;3.53;1.83;;;10.80;99.90;;;;;;5062294;28;20033;-81
2023/04/11 06:15:10;;;;;;;3.17;2.10;;;10.80;99.90;;;;;;5059566;28;20529;-81
2023/04/11 06:17:36;;;;;;;2.80;2.00;;;10.80;99.90;;;;;;5048581;28;20040;-80
2023/04/11 06:20:04;;;;;;;2.43;1.83;;;10.70;99.90;;;;;;5054580;28;20118;-81
2023/04/11 06:22:30;;;;;;;5.03;2.17;;;10.80;99.90;;;;;;5052413;28;20040;-80
2023/04/11 06:24:55;;;;;;;3.40;1.90;;;10.80;99.90;;;;;;5049855;28;20037;-81
2023/04/11 06:27:21;;;;;;;4.87;2.17;;;10.80;99.90;;;;;;5050680;28;20032;-81
2023/04/11 06:29:46;;;;;;;7.20;2.00;;;10.80;99.90;;;;;;5048880;28;20083;-81
2023/04/11 06:32:12;;;;;;;4.70;2.00;;;10.80;99.90;;;;;;5047281;28;20051;-81
2023/04/11 06:34:38;;;;;;;3.57;1.80;;;10.70;99.90;;;;;;5051342;28;20041;-81
2023/04/11 06:37:06;;;;;;;4.17;2.03;;;10.70;99.90;;;;;;5049796;28;20039;-80
2023/04/11 06:39:32;;;;;;;4.63;2.10;;;10.80;99.90;;;;;;5040374;28;20037;-81
2023/04/11 06:41:57;;;;;;;3.53;1.90;;;10.70;99.90;;;;;;5047924;28;20044;-80
2023/04/11 06:44:23;;;;;;;3.90;1.90;;;10.50;99.90;;;;;;5052134;28;20037;-80
2023/04/11 06:46:48;;;;;;;4.13;2.17;;;10.40;99.90;;;;;;5046973;28;20028;-79
2023/04/11 06:49:16;;;;;;;4.10;1.93;;;10.40;99.90;;;;;;5043879;28;20071;-80
2023/04/11 06:51:41;;;;;;;4.77;2.07;;;10.30;99.90;;;;;;5052580;28;20040;-80
2023/04/11 06:54:07;;;;;;;2.83;1.90;;;10.30;99.90;;;;;;5059289;28;20436;-79
2023/04/11 06:56:32;;;;;;;4.37;2.10;;;10.20;99.90;;;;;;5059514;28;20043;-80
2023/04/11 06:58:58;;;;;;;2.83;1.80;;;10.20;99.90;;;;;;5059402;28;20045;-80
2023/04/11 07:01:29;;;;;;;4.13;1.97;;;10.10;99.90;;;;;;5060803;28;20057;-80
2023/04/11 07:03:57;;;;;;;3.63;1.90;;;10.00;99.90;;;;;;5059109;28;20028;-80
2023/04/11 07:06:23;;;;;;;2.73;1.70;;;10.00;99.90;;;;;;5056649;28;20110;-80
2023/04/11 07:08:50;;;;;;;3.00;1.87;;;10.00;99.90;;;;;;5057109;28;20029;-81
2023/04/11 07:11:16;;;;;;;1.80;1.50;;;10.00;99.90;;;;;;5056626;28;20036;-80
2023/04/11 07:13:41;;;;;;;3.30;1.27;;;9.90;99.90;;;;;;5053151;28;20032;-80
2023/04/11 07:16:07;;;;;;;3.30;1.47;;;10.00;99.90;;;;;;5050117;28;20033;-80
2023/04/11 07:18:33;;;;;;;3.93;1.40;;;9.90;99.90;;;;;;5051987;28;20052;-79
2023/04/11 07:20:58;;;;;;;2.73;1.43;;;9.90;99.90;;;;;;5046824;28;20032;-80
2023/04/11 07:23:24;;;;;;;4.07;1.40;;;9.80;99.90;;;;;;5045804;28;20397;-81
2023/04/11 07:25:49;;;;;;;4.70;1.40;;;9.70;99.90;;;;;;5051018;28;20039;-81
2023/04/11 07:28:15;;;;;;;2.17;1.30;;;9.60;99.90;;;;;;5043008;28;20064;-77
2023/04/11 07:30:41;;;;;;;2.00;1.43;;;9.50;99.90;;;;;;5041903;28;20040;-76
2023/04/11 07:33:06;;;;;;;2.70;1.30;;;9.50;99.90;;;;;;5040802;28;20110;-77
2023/04/11 07:35:33;;;;;;;1.80;1.20;;;9.50;99.90;;;;;;5041204;28;21417;-77
2023/04/11 07:38:00;;;;;;;2.13;1.10;;;9.50;99.90;;;;;;5041696;28;20048;-77
2023/04/11 07:40:26;;;;;;;2.50;1.13;;;9.40;99.90;;;;;;5040958;28;20384;-77
2023/04/11 07:42:52;;;;;;;1.83;1.00;;;9.40;99.90;;;;;;5040200;28;20039;-77
2023/04/11 07:45:17;;;;;;;2.67;1.13;;;9.40;99.90;;;;;;5040274;28;20773;-77
2023/04/11 07:47:43;;;;;;;3.10;1.10;;;9.40;99.90;;;;;;5041839;28;20143;-77
2023/04/11 07:50:09;;;;;;;2.80;1.20;;;9.30;99.90;;;;;;5039468;28;20037;-77
2023/04/11 07:52:34;;;;;;;3.03;1.30;;;9.30;99.90;;;;;;5041066;28;20033;-77
2023/04/11 07:55:00;;;;;;;1.43;1.20;;;9.30;99.90;;;;;;5036776;28;20694;-78
2023/04/11 07:57:25;;;;;;;1.97;1.20;;;9.20;99.90;;;;;;5034415;28;20727;-78
2023/04/11 07:59:51;;;;;;;1.83;1.20;;;9.10;99.90;;;;;;5037813;28;20850;-78
2023/04/11 08:02:16;;;;;;;1.70;1.10;;;9.10;99.90;;;;;;5040373;28;20028;-78
2023/04/11 08:04:42;;;;;;;2.63;1.00;;;9.20;99.90;;;;;;5045177;28;20184;-77
2023/04/11 08:07:07;;;;;;;2.20;0.83;;;9.10;99.90;;;;;;5044533;28;20059;-78
2023/04/11 08:09:33;;;;;;;3.73;1.03;;;9.00;99.90;;;;;;5044345;28;20059;-78
2023/04/11 08:12:00;;;;;;;2.10;0.90;;;8.90;99.90;;;;;;5043482;28;20021;-78
2023/04/11 08:14:26;;;;;;;4.47;1.10;;;8.90;99.90;;;;;;5044948;28;20416;-78
2023/04/11 08:16:52;;;;;;;3.80;1.23;;;8.90;99.90;;;;;;5044820;28;20036;-78
2023/04/11 08:19:17;;;;;;;3.37;1.07;;;8.80;99.90;;;;;;5044161;28;20040;-78
2023/04/11 08:21:43;;;;;;;1.20;0.80;;;8.80;99.90;;;;;;5045889;28;20121;-78
2023/04/11 08:24:09;;;;;;;1.40;1.10;;;8.60;99.90;;;;;;5043335;28;20059;-78
2023/04/11 08:26:34;;;;;;;2.50;1.00;;;8.60;99.90;;;;;;5043752;28;20055;-78
2023/04/11 08:29:00;;;;;;;1.47;1.00;;;8.60;99.90;;;;;;5045126;28;20562;-78
2023/04/11 08:31:27;;;;;;;1.70;0.80;;;8.60;99.90;;;;;;5045254;28;20032;-78
2023/04/11 08:33:53;;;;;;;2.10;1.00;;;8.60;99.90;;;;;;5042611;28;20068;-78
2023/04/11 08:36:18;;;;;;;1.80;0.90;;;8.70;99.90;;;;;;5044704;28;20119;-78
2023/04/11 08:38:44;;;;;;;2.17;1.10;;;8.80;99.90;;;;;;5046895;28;20050;-79
2023/04/11 08:41:10;;;;;;;2.87;1.03;;;8.80;99.90;;;;;;5043971;28;20024;-78
2023/04/11 08:43:38;;;;;;;2.70;0.90;;;8.90;99.90;;;;;;5043436;28;20029;-78
2023/04/11 08:46:06;;;;;;;1.80;0.90;;;9.00;99.90;;;;;;5043833;28;20498;-78
2023/04/11 08:48:32;;;;;;;2.23;0.90;;;8.90;99.90;;;;;;5045138;28;20510;-77
2023/04/11 08:50:58;;;;;;;2.73;1.00;;;8.90;99.90;;;;;;5042550;28;20032;-78
2023/04/11 08:53:25;;;;;;;1.53;1.00;;;8.90;99.90;;;;;;5044918;28;20178;-78
2023/04/11 08:55:51;;;;;;;3.60;1.03;;;8.90;99.90;;;;;;5045437;28;20032;-78
2023/04/11 08:58:17;;;;;;;2.07;1.10;;;8.90;99.90;;;;;;5044885;28;20040;-78
2023/04/11 09:00:43;;;;;;;2.47;1.10;;;8.90;99.90;;;;;;5041374;28;20033;-78
2023/04/11 09:03:10;;;;;;;4.00;1.43;;;9.00;99.90;;;;;;5044046;28;20041;-78
2023/04/11 09:05:42;;;;;;;2.50;1.10;;;9.00;99.90;;;;;;5040880;28;20048;-78
2023/04/11 09:08:09;;;;;;;2.80;1.20;;;8.90;99.90;;;;;;5043488;28;20044;-78
2023/04/11 09:10:39;;;;;;;2.23;1.10;;;8.90;99.90;;;;;;5041360;28;20044;-78
2023/04/11 09:13:25;;;;;;;2.17;1.20;;;9.00;99.90;;;;;;5042843;28;20033;-78
2023/04/11 09:16:04;;;;;;;5.57;1.43;;;9.00;99.90;;;;;;5039950;28;20099;-78
2023/04/11 09:18:35;;;;;;;2.13;1.10;;;9.10;99.90;;;;;;5043951;28;20431;-78
2023/04/11 09:21:06;;;;;;;3.90;1.50;;;9.10;99.90;;;;;;5040988;28;20048;-79
2023/04/11 09:23:32;;;;;;;5.07;1.30;;;9.10;99.90;;;;;;5041904;28;20029;-78
2023/04/11 09:25:58;;;;;;;2.40;1.40;;;9.20;99.90;;;;;;5044856;28;20524;-78
2023/04/11 09:28:24;;;;;;;2.37;1.10;;;9.30;99.90;;;;;;5042067;28;20028;-78
2023/04/11 09:30:51;;;;;;;3.40;1.53;;;9.20;99.90;;;;;;5042713;28;20029;-79
2023/04/11 09:33:21;;;;;;;6.37;1.43;;;9.20;99.90;;;;;;5041598;28;20124;-79
2023/04/11 09:35:48;;;;;;;2.03;1.00;;;9.10;99.90;;;;;;5040963;28;20165;-79
2023/04/11 09:38:35;;;;;;;3.83;1.20;;;9.10;99.90;;;;;;5042750;28;20051;-79
2023/04/11 09:41:02;;;;;;;2.03;0.90;;;9.20;99.90;;;;;;5042322;28;20035;-79
2023/04/11 09:43:48;;;;;;;3.77;1.30;;;9.10;99.90;;;;;;5042846;28;20035;-78
2023/04/11 09:46:17;;;;;;;3.85;1.50;;;9.10;99.90;;;;;;5043148;28;20148;-78
2023/04/11 09:48:43;;;;;;;4.60;1.40;;;9.20;99.90;;;;;;5043036;28;20410;-78
2023/04/11 09:51:09;;;;;;;4.00;2.00;;;9.10;99.90;;;;;;5041831;28;20032;-78
2023/04/11 09:53:36;;;;;;;2.90;1.20;;;9.20;99.90;;;;;;5041686;28;20562;-78
2023/04/11 09:56:02;;;;;;;4.40;1.43;;;9.20;99.90;;;;;;5041223;28;20033;-78
2023/04/11 09:58:34;;;;;;;4.17;1.33;;;9.20;99.90;;;;;;5041278;28;20528;-78
2023/04/11 10:01:00;;;;;;;5.17;1.63;;;9.10;99.90;;;;;;5047277;28;20408;-78
2023/04/11 10:03:26;;;;;;;5.40;1.40;;;9.20;99.90;;;;;;5048798;28;20507;-78
2023/04/11 10:05:53;;;;;;;7.17;1.60;;;9.20;99.90;;;;;;5049877;28;20058;-80
2023/04/11 10:08:29;;;;;;;4.87;1.30;;;9.20;99.90;;;;;;5051066;28;20139;-80
2023/04/11 10:10:55;;;;;;;3.90;1.30;;;9.30;99.90;;;;;;5052685;28;20052;-80
2023/04/11 10:13:41;;;;;;;3.70;1.37;;;9.30;99.90;;;;;;5052225;28;20059;-80
2023/04/11 10:16:13;;;;;;;6.80;1.60;;;9.40;99.90;;;;;;5051994;28;20075;-80
2023/04/11 10:18:55;;;;;;;4.27;1.50;;;9.40;99.90;;;;;;5050521;28;20045;-80
2023/04/11 10:21:29;;;;;;;9.77;1.60;;;9.60;99.90;;;;;;5051269;28;20068;-81
2023/04/11 10:24:20;;;;;;;4.95;1.55;;;9.60;99.90;;;;;;5052157;28;20040;-80
2023/04/11 10:26:59;;;;;;;3.97;1.20;;;9.70;99.90;;;;;;5051248;28;20803;-79
2023/04/11 10:29:32;;;;;;;4.77;1.43;;;9.70;99.90;;;;;;5049494;28;20052;-80
2023/04/11 10:32:18;;;;;;;4.50;1.40;;;9.80;99.90;;;;;;5053178;28;20040;-80
2023/04/11 10:34:53;;;;;;;3.40;1.13;;;9.80;99.90;;;;;;5057143;28;20042;-80
2023/04/11 10:37:32;;;;;;;2.35;1.13;;;9.90;99.90;;;;;;5055724;28;20531;-80
2023/04/11 10:39:59;;;;;;;4.30;1.40;;;10.00;99.90;;;;;;5051643;28;20063;-81
2023/04/11 10:42:31;;;;;;;2.90;1.13;;;10.00;99.90;;;;;;5042330;28;20029;-81
2023/04/11 10:45:28;;;;;;;3.17;1.30;;;10.10;99.90;;;;;;5048464;28;20029;-80
2023/04/11 10:47:59;;;;;;;3.37;1.10;;;10.30;99.90;;;;;;5041283;28;20036;-80
2023/04/11 10:50:28;;;;;;;5.37;1.33;;;10.30;99.90;;;;;;5048784;28;20059;-80
2023/04/11 10:52:55;;;;;;;4.80;1.20;;;10.30;99.90;;;;;;5051811;28;20749;-80
2023/04/11 10:55:21;;;;;;;3.70;1.30;;;10.30;99.90;;;;;;5054270;28;20232;-81
2023/04/11 10:58:06;;;;;;;4.53;1.43;;;10.50;99.90;;;;;;5053455;28;20064;-80
2023/04/11 11:03:21;;;;;;;2.23;1.10;;;10.90;99.90;;;;;;5054829;28;20063;-80
2023/04/11 11:05:55;;;;;;;8.10;1.60;;;11.00;99.90;;;;;;5050283;28;20996;-81
2023/04/11 11:08:36;;;;;;;4.75;1.25;;;11.30;99.90;;;;;;5043999;28;20044;-81
2023/04/11 11:11:06;;;;;;;3.40;1.10;;;11.50;99.90;;;;;;5049633;28;20079;-81
2023/04/11 11:13:39;;;;;;;4.10;1.10;;;11.70;99.90;;;;;;5042797;28;20033;-80
2023/04/11 11:16:06;;;;;;;5.70;1.42;;;11.70;99.90;;;;;;5052068;28;20044;-80
2023/04/11 11:18:33;;;;;;;3.75;1.20;;;11.80;99.90;;;;;;5048604;28;20126;-80
2023/04/11 11:20:58;;;;;;;4.00;1.10;;;11.80;99.90;;;;;;5051395;28;20435;-80
2023/04/11 11:23:24;;;;;;;4.03;1.40;;;11.70;99.90;;;;;;5050940;28;20029;-80
2023/04/11 11:25:55;;;;;;;5.47;1.47;;;11.40;99.90;;;;;;5051572;28;20024;-80
2023/04/11 11:28:21;;;;;;;2.60;1.20;;;11.10;99.90;;;;;;5050896;28;20060;-80
2023/04/11 11:30:51;;;;;;;5.43;1.30;;;10.90;99.90;;;;;;5051597;28;20039;-81
2023/04/11 11:33:19;;;;;;;5.00;1.60;;;10.80;99.90;;;;;;5055380;28;20497;-80
2023/04/11 11:35:50;;;;;;;3.87;1.50;;;10.60;99.90;;;;;;5055759;28;20041;-80
2023/04/11 11:38:17;;;;;;;6.07;1.40;;;10.60;99.90;;;;;;5062247;28;20120;-80
2023/04/11 11:40:45;;;;;;;3.93;1.50;;;10.50;99.90;;;;;;5054049;28;20053;-81
2023/04/11 11:43:11;;;;;;;3.00;1.30;;;10.40;99.90;;;;;;5052641;28;20036;-81
2023/04/11 11:45:36;;;;;;;3.40;1.27;;;10.40;99.90;;;;;;5053683;28;20107;-80
2023/04/11 11:48:02;;;;;;;6.23;1.57;;;10.40;99.90;;;;;;5052390;28;20035;-81
2023/04/11 11:50:29;;;;;;;6.03;1.40;;;10.50;99.90;;;;;;5052211;28;20068;-80
2023/04/11 11:52:57;;;;;;;4.67;2.00;;;10.40;99.90;;;;;;5053006;28;20181;-80
2023/04/11 11:55:23;;;;;;;5.83;2.03;;;10.50;99.90;;;;;;5053835;28;20037;-80
2023/04/11 11:57:49;;;;;;;6.90;1.43;;;10.70;99.90;;;;;;5052932;28;20075;-80
2023/04/11 12:00:23;;;;;;;3.63;1.47;;;10.90;99.90;;;;;;5057220;28;20040;-80
2023/04/11 12:02:51;;;;;;;4.20;1.42;;;11.10;99.90;;;;;;5054211;28;20040;-80
2023/04/11 12:05:17;;;;;;;4.50;1.43;;;11.20;99.90;;;;;;5052649;28;20032;-80
2023/04/11 12:07:43;;;;;;;7.57;1.67;;;11.30;99.90;;;;;;5053247;28;20562;-80
2023/04/11 12:10:13;;;;;;;4.67;1.53;;;11.30;99.90;;;;;;5053889;28;20130;-80
2023/04/11 12:12:46;;;;;;;4.13;1.57;;;11.30;99.90;;;;;;5051642;28;20668;-80
2023/04/11 12:15:20;;;;;;;5.33;1.60;;;11.20;99.90;;;;;;5052234;28;20131;-80
2023/04/11 12:17:50;;;;;;;4.50;2.07;;;11.20;99.90;;;;;;5055604;28;20097;-81
2023/04/11 12:20:20;;;;;;;4.00;1.37;;;11.30;99.90;;;;;;5054084;28;20096;-80
2023/04/11 12:22:45;;;;;;;7.23;1.70;;;11.50;99.90;;;;;;5052830;28;20039;-80
2023/04/11 12:25:13;;;;;;;4.55;1.30;;;12.00;99.90;;;;;;5055183;28;20065;-80
2023/04/11 12:27:40;;;;;;;6.28;2.25;;;12.30;99.90;;;;;;5055462;28;20028;-80
2023/04/11 12:30:07;;;;;;;6.43;1.75;;;12.30;99.90;;;;;;5055805;28;20047;-80
2023/04/11 12:32:33;;;;;;;5.25;1.63;;;12.40;99.90;;;;;;5054220;28;20024;-79
2023/04/11 12:34:59;;;;;;;5.72;1.70;;;12.20;99.90;;;;;;5049804;28;20051;-79
2023/04/11 12:37:25;;;;;;;6.57;1.58;;;12.20;99.90;;;;;;5052648;28;20032;-80
2023/04/11 12:39:50;;;;;;;5.40;1.52;;;12.10;99.90;;;;;;5050450;28;20051;-80
2023/04/11 12:42:16;;;;;;;5.93;1.90;;;11.90;99.90;;;;;;5050400;28;20024;-80
2023/04/11 12:44:43;;;;;;;7.47;1.75;;;11.80;99.90;;;;;;5050809;28;20036;-80
2023/04/11 12:47:08;;;;;;;6.67;1.80;;;11.60;99.90;;;;;;5049905;28;20040;-80
2023/04/11 12:49:34;;;;;;;5.32;1.58;;;11.60;99.90;;;;;;5054728;28;21415;-79
2023/04/11 12:51:59;;;;;;;4.20;1.73;;;11.60;99.90;;;;;;5054322;28;20484;-80
2023/04/11 12:54:25;;;;;;;6.82;1.83;;;11.70;99.90;;;;;;5053464;28;20036;-79